createdAt,value
2023-09-12T00:01:44.187Z,87.96
2023-09-12T00:04:12.644Z,87.32
2023-09-12T00:06:40.559Z,86.48
2023-09-12T00:09:08.473Z,86.57
2023-09-12T00:11:36.198Z,86.93
2023-09-12T00:14:04.036Z,87.26
2023-09-12T00:16:31.920Z,87.04
2023-09-12T00:18:59.815Z,86.91
2023-09-12T00:21:27.517Z,86.50
2023-09-12T00:23:55.323Z,86.74
2023-09-12T00:26:22.964Z,87.37
2023-09-12T00:28:51.433Z,87.61
2023-09-12T00:31:19.348Z,86.67
2023-09-12T00:33:47.095Z,86.64
2023-09-12T00:36:14.809Z,87.14
2023-09-12T00:38:42.834Z,87.68
2023-09-12T00:41:10.708Z,87.07
2023-09-12T00:43:38.383Z,87.38
2023-09-12T00:46:06.204Z,86.83
2023-09-12T00:48:34.806Z,87.83
2023-09-12T00:51:03.022Z,87.43
2023-09-12T00:53:30.736Z,87.31
2023-09-12T00:56:00.192Z,88.24
2023-09-12T00:58:28.196Z,88.08
2023-09-12T01:00:57.537Z,87.75
2023-09-12T01:03:26.011Z,88.10
2023-09-12T01:05:53.765Z,87.68
2023-09-12T01:08:21.498Z,87.85
2023-09-12T01:10:51.611Z,87.95
2023-09-12T01:13:19.644Z,87.96
2023-09-12T01:15:47.358Z,88.36
2023-09-12T01:18:15.511Z,87.80
2023-09-12T01:21:05.492Z,87.84
2023-09-12T01:23:39.179Z,89.06
2023-09-12T01:26:42.410Z,88.51
2023-09-12T01:29:14.228Z,88.95
2023-09-12T01:31:44.061Z,88.59
2023-09-12T01:34:13.288Z,88.45
2023-09-12T01:36:41.211Z,87.88
2023-09-12T01:39:09.688Z,87.83
2023-09-12T01:41:44.582Z,88.21
2023-09-12T01:44:13.072Z,88.00
2023-09-12T01:46:41.632Z,87.06
2023-09-12T01:49:11.295Z,87.50
2023-09-12T01:51:39.405Z,88.64
2023-09-12T01:54:08.116Z,89.35
2023-09-12T01:56:36.431Z,88.20
2023-09-12T01:59:04.545Z,88.28
2023-09-12T02:01:32.345Z,89.05
2023-09-12T02:04:00.540Z,89.07
2023-09-12T02:06:29.426Z,89.68
2023-09-12T02:08:57.092Z,89.31
2023-09-12T02:11:24.751Z,88.78
2023-09-12T02:13:52.539Z,88.81
2023-09-12T02:16:20.265Z,88.46
2023-09-12T02:18:47.978Z,88.73
2023-09-12T02:21:19.597Z,88.75
2023-09-12T02:23:47.524Z,88.77
2023-09-12T02:26:15.428Z,89.18
2023-09-12T02:28:43.425Z,89.09
2023-09-12T02:31:12.974Z,89.13
2023-09-12T02:33:41.254Z,88.93
2023-09-12T02:36:09.258Z,88.91
2023-09-12T02:38:37.051Z,89.42
2023-09-12T02:41:05.148Z,89.31
2023-09-12T02:43:33.491Z,89.06
2023-09-12T02:46:01.294Z,89.07
2023-09-12T02:48:29.289Z,89.12
2023-09-12T02:50:57.074Z,89.05
2023-09-12T02:53:24.915Z,89.02
2023-09-12T02:55:52.928Z,88.39
2023-09-12T02:58:20.571Z,88.53
2023-09-12T03:00:51.332Z,89.12
2023-09-12T03:03:19.312Z,89.62
2023-09-12T03:05:47.230Z,89.77
2023-09-12T03:08:15.086Z,89.71
2023-09-12T03:10:42.961Z,89.22
2023-09-12T03:13:13.370Z,89.63
2023-09-12T03:15:41.182Z,89.46
2023-09-12T03:18:11.083Z,89.31
2023-09-12T03:20:40.351Z,89.38
2023-09-12T03:23:08.168Z,90.16
2023-09-12T03:25:40.037Z,90.10
2023-09-12T03:28:08.584Z,89.81
2023-09-12T03:30:38.606Z,90.05
2023-09-12T03:33:07.044Z,90.18
2023-09-12T03:35:35.605Z,90.15
2023-09-12T03:38:03.710Z,89.76
2023-09-12T03:40:31.887Z,89.85
2023-09-12T03:42:59.871Z,90.03
2023-09-12T03:45:27.738Z,89.93
2023-09-12T03:47:55.592Z,89.53
2023-09-12T03:50:23.552Z,89.43
2023-09-12T03:52:51.222Z,89.39
2023-09-12T03:55:18.972Z,89.60
2023-09-12T03:57:46.650Z,89.29
2023-09-12T04:00:16.708Z,90.08
2023-09-12T04:02:48.315Z,90.45
2023-09-12T04:05:16.625Z,90.08
2023-09-12T04:07:44.412Z,90.58
2023-09-12T04:10:12.072Z,90.75
2023-09-12T04:12:40.132Z,90.65
2023-09-12T04:15:08.148Z,90.44
2023-09-12T04:17:36.417Z,90.55
2023-09-12T04:20:08.050Z,90.21
2023-09-12T04:22:36.005Z,90.11
2023-09-12T04:25:04.183Z,90.07
2023-09-12T04:27:31.947Z,89.99
2023-09-12T04:29:59.854Z,89.15
2023-09-12T04:32:27.509Z,89.58
2023-09-12T04:34:55.639Z,90.51
2023-09-12T04:37:23.443Z,90.70
2023-09-12T04:39:51.122Z,90.79
2023-09-12T04:42:19.069Z,91.64
2023-09-12T04:44:47.104Z,91.50
2023-09-12T04:47:15.172Z,91.60
2023-09-12T04:49:44.924Z,91.74
2023-09-12T04:52:12.700Z,92.85
2023-09-12T04:54:40.691Z,91.32
2023-09-12T04:57:08.972Z,91.30
2023-09-12T04:59:37.159Z,91.18
2023-09-12T05:02:04.885Z,90.86
2023-09-12T05:04:33.157Z,90.65
2023-09-12T05:07:01.014Z,90.82
2023-09-12T05:09:28.968Z,90.61
2023-09-12T05:11:56.901Z,91.48
2023-09-12T05:14:24.678Z,92.48
2023-09-12T05:16:52.449Z,92.42
2023-09-12T05:19:20.374Z,92.21
2023-09-12T05:21:48.117Z,92.23
2023-09-12T05:24:16.197Z,91.84
2023-09-12T05:26:44.549Z,92.11
2023-09-12T05:29:12.587Z,91.36
2023-09-12T05:31:40.627Z,91.05
2023-09-12T05:34:08.543Z,90.69
2023-09-12T05:36:36.555Z,91.15
2023-09-12T05:39:04.792Z,90.10
2023-09-12T05:41:32.531Z,92.24
2023-09-12T05:44:00.995Z,94.95
2023-09-12T05:46:28.967Z,96.23
2023-09-12T05:48:56.973Z,96.99
2023-09-12T05:51:24.737Z,96.07
2023-09-12T05:53:52.477Z,92.05
2023-09-12T05:56:21.520Z,90.23
2023-09-12T05:58:51.314Z,89.26
2023-09-12T06:01:19.164Z,88.80
2023-09-12T06:03:47.762Z,89.66
2023-09-12T06:06:16.073Z,89.34
2023-09-12T06:08:44.230Z,88.53
2023-09-12T06:11:12.086Z,89.32
2023-09-12T06:13:39.824Z,88.16
2023-09-12T06:16:08.960Z,87.17
2023-09-12T06:18:36.899Z,87.34
2023-09-12T06:21:05.641Z,86.80
2023-09-12T06:23:33.419Z,85.96
2023-09-12T06:26:01.152Z,85.02
2023-09-12T06:28:31.290Z,84.20
2023-09-12T06:30:59.799Z,84.44
2023-09-12T06:33:28.135Z,83.40
2023-09-12T06:35:55.810Z,82.76
2023-09-12T06:38:24.407Z,82.45
2023-09-12T06:40:52.694Z,81.20
2023-09-12T06:43:20.668Z,81.08
2023-09-12T06:45:49.332Z,78.98
2023-09-12T06:48:17.865Z,78.23
2023-09-12T06:50:50.313Z,77.53
2023-09-12T06:53:19.441Z,77.67
2023-09-12T06:55:47.181Z,76.58
2023-09-12T06:58:14.891Z,75.42
2023-09-12T07:00:42.772Z,76.56
2023-09-12T07:03:13.479Z,75.60
2023-09-12T07:05:42.940Z,73.71
2023-09-12T07:08:11.381Z,74.19
2023-09-12T07:10:44.314Z,73.03
2023-09-12T07:13:12.060Z,72.16
2023-09-12T07:15:40.143Z,69.78
2023-09-12T07:18:07.978Z,70.14
2023-09-12T07:20:35.706Z,70.35
2023-09-12T07:23:03.531Z,68.64
2023-09-12T07:25:31.430Z,68.21
2023-09-12T07:27:59.188Z,66.85
2023-09-12T07:30:27.014Z,65.07
2023-09-12T07:32:54.860Z,65.64
2023-09-12T07:35:25.021Z,65.25
2023-09-12T07:37:52.846Z,63.30
2023-09-12T07:40:20.549Z,61.47
2023-09-12T07:42:48.412Z,60.14
2023-09-12T07:45:16.224Z,59.82
2023-09-12T07:47:43.967Z,58.56
2023-09-12T07:50:11.751Z,57.26
2023-09-12T07:52:39.637Z,57.10
2023-09-12T07:55:08.777Z,59.06
2023-09-12T07:57:37.724Z,55.23
2023-09-12T08:00:11.757Z,56.77
2023-09-12T08:02:40.013Z,55.59
2023-09-12T08:05:09.263Z,53.06
2023-09-12T08:07:37.771Z,54.32
2023-09-12T08:10:05.985Z,54.76
2023-09-12T08:12:33.780Z,50.93
2023-09-12T08:15:01.695Z,52.12
2023-09-12T08:17:29.535Z,50.84
2023-09-12T08:19:57.847Z,51.49
2023-09-12T08:22:25.559Z,49.34
2023-09-12T08:24:53.356Z,47.79
2023-09-12T08:27:22.898Z,48.81
2023-09-12T08:29:51.336Z,46.98
2023-09-12T08:32:19.128Z,47.06
2023-09-12T08:34:46.826Z,47.25
2023-09-12T08:37:14.525Z,44.98
2023-09-12T08:39:46.447Z,45.00
2023-09-12T08:42:16.936Z,45.96
2023-09-12T08:44:44.836Z,43.78
2023-09-12T08:47:14.112Z,43.42
2023-09-12T08:49:45.200Z,41.98
2023-09-12T08:52:13.153Z,40.72
2023-09-12T08:54:41.430Z,39.54
2023-09-12T08:57:11.872Z,36.68
2023-09-12T08:59:41.729Z,38.57
2023-09-12T09:02:11.184Z,37.19
2023-09-12T09:04:41.858Z,39.61
2023-09-12T09:07:11.843Z,37.07
2023-09-12T09:09:39.990Z,37.07
2023-09-12T09:12:09.877Z,37.62
2023-09-12T09:14:37.690Z,35.70
2023-09-12T09:17:05.421Z,33.81
2023-09-12T09:19:43.001Z,33.27
2023-09-12T09:22:10.757Z,34.53
2023-09-12T09:24:38.693Z,33.17
2023-09-12T09:27:06.409Z,32.93
2023-09-12T09:29:47.193Z,33.43
2023-09-12T09:32:20.060Z,33.26
2023-09-12T09:34:48.014Z,32.05
2023-09-12T09:37:16.768Z,32.51
2023-09-12T09:39:45.158Z,31.42
2023-09-12T09:42:13.107Z,31.65
2023-09-12T09:44:40.858Z,30.55
2023-09-12T09:47:09.019Z,30.78
2023-09-12T09:49:36.769Z,30.12
2023-09-12T09:52:06.024Z,31.00
2023-09-12T09:54:34.302Z,30.47
2023-09-12T09:57:01.993Z,28.91
2023-09-12T09:59:29.885Z,29.48
2023-09-12T10:01:59.387Z,29.22
2023-09-12T10:04:29.795Z,28.26
2023-09-12T10:06:59.629Z,27.98
2023-09-12T10:09:29.695Z,27.76
2023-09-12T10:11:58.990Z,27.33
2023-09-12T10:14:28.339Z,28.81
2023-09-12T10:17:07.361Z,27.75
2023-09-12T10:19:44.204Z,28.18
2023-09-12T10:22:40.644Z,27.26
2023-09-12T10:25:09.387Z,27.97
2023-09-12T10:27:37.203Z,28.08
2023-09-12T10:30:06.207Z,28.28
2023-09-12T10:32:34.814Z,28.24
2023-09-12T10:35:04.203Z,27.69
2023-09-12T10:37:34.107Z,28.75
2023-09-12T10:40:04.654Z,29.14
2023-09-12T10:42:34.053Z,29.55
2023-09-12T10:45:04.710Z,29.93
2023-09-12T10:47:32.893Z,30.13
2023-09-12T10:50:00.712Z,31.03
2023-09-12T10:52:29.453Z,32.32
2023-09-12T10:54:57.722Z,32.30
2023-09-12T10:57:25.764Z,33.54
2023-09-12T11:00:05.437Z,33.11
2023-09-12T11:02:34.196Z,34.20
2023-09-12T11:05:05.943Z,32.37
2023-09-12T11:07:34.813Z,32.63
2023-09-12T11:10:16.220Z,32.12
2023-09-12T11:12:44.976Z,31.28
2023-09-12T11:15:13.068Z,30.91
2023-09-12T11:17:41.155Z,32.51
2023-09-12T11:20:13.197Z,33.82
2023-09-12T11:22:43.391Z,33.18
2023-09-12T11:25:19.298Z,34.03
2023-09-12T11:28:05.323Z,33.09
2023-09-12T11:30:33.417Z,32.31
2023-09-12T11:33:05.587Z,32.56
2023-09-12T11:35:38.440Z,30.53
2023-09-12T11:38:11.461Z,30.63
2023-09-12T11:40:39.139Z,30.29
2023-09-12T11:43:07.425Z,30.95
2023-09-12T11:45:36.076Z,30.56
2023-09-12T11:48:04.340Z,30.07
2023-09-12T11:50:34.466Z,29.33
2023-09-12T11:53:08.158Z,28.72
2023-09-12T11:55:39.358Z,28.29
2023-09-12T11:58:07.178Z,28.85
2023-09-12T12:00:35.301Z,28.00
2023-09-12T12:03:03.980Z,28.10
2023-09-12T12:05:33.436Z,28.32
2023-09-12T12:08:21.716Z,27.54
2023-09-12T12:10:52.729Z,27.80
2023-09-12T12:13:22.042Z,27.03
2023-09-12T12:15:50.140Z,27.56
2023-09-12T12:18:18.007Z,27.62
2023-09-12T12:20:45.868Z,27.47
2023-09-12T12:23:13.742Z,28.05
2023-09-12T12:25:41.527Z,28.22
2023-09-12T12:28:12.724Z,29.89
2023-09-12T12:30:40.846Z,29.81
2023-09-12T12:34:04.302Z,29.65
2023-09-12T12:36:06.194Z,31.24
2023-09-12T12:38:49.327Z,31.83
2023-09-12T12:41:36.869Z,30.97
2023-09-12T12:44:07.920Z,31.79
2023-09-12T12:46:48.719Z,31.42
2023-09-12T12:49:17.333Z,32.09
2023-09-12T12:51:46.166Z,32.15
2023-09-12T12:54:14.944Z,32.27
2023-09-12T12:56:44.266Z,32.01
2023-09-12T12:59:12.027Z,31.92
2023-09-12T13:01:40.332Z,32.67
2023-09-12T13:04:09.687Z,32.81
2023-09-12T13:06:38.205Z,32.92
2023-09-12T13:09:07.465Z,33.36
2023-09-12T13:11:38.544Z,34.43
2023-09-12T13:14:13.083Z,34.08
2023-09-12T13:16:42.437Z,33.68
2023-09-12T13:19:12.492Z,33.67
2023-09-12T13:21:40.558Z,33.53
2023-09-12T13:24:08.516Z,33.54
2023-09-12T13:26:36.375Z,33.45
2023-09-12T13:29:04.090Z,33.60
2023-09-12T13:31:32.950Z,33.95
2023-09-12T13:34:00.942Z,33.62
2023-09-12T13:36:28.741Z,33.90
2023-09-12T13:38:57.031Z,34.28
2023-09-12T13:41:26.502Z,34.79
2023-09-12T13:43:54.411Z,34.59
2023-09-12T13:46:22.261Z,34.82
2023-09-12T13:48:50.293Z,34.93
2023-09-12T13:51:18.133Z,35.36
2023-09-12T13:53:46.166Z,35.15
2023-09-12T13:56:23.533Z,35.27
2023-09-12T13:58:51.459Z,34.92
2023-09-12T14:01:32.151Z,35.21
2023-09-12T14:04:03.944Z,34.49
2023-09-12T14:06:34.724Z,35.01
2023-09-12T14:09:03.220Z,35.15
2023-09-12T14:11:35.823Z,34.42
2023-09-12T14:16:36.296Z,36.05
2023-09-12T14:19:04.584Z,35.41
2023-09-12T14:21:32.706Z,35.30
2023-09-12T14:24:01.623Z,35.50
2023-09-12T14:26:30.349Z,34.80
2023-09-12T14:28:58.262Z,34.92
2023-09-12T14:31:26.641Z,36.24
2023-09-12T14:33:54.531Z,35.25
2023-09-12T14:36:22.251Z,36.01
2023-09-12T14:38:50.009Z,37.45
2023-09-12T14:41:17.665Z,37.16
2023-09-12T14:43:45.539Z,36.11
2023-09-12T14:46:13.646Z,36.19
2023-09-12T14:48:44.610Z,35.63
2023-09-12T14:51:27.838Z,35.97
2023-09-12T14:53:58.996Z,35.85
2023-09-12T14:56:26.777Z,35.56
2023-09-12T14:58:54.545Z,35.67
2023-09-12T15:01:22.609Z,35.52
2023-09-12T15:03:50.467Z,37.10
2023-09-12T15:06:19.923Z,36.06
2023-09-12T15:08:52.887Z,35.66
2023-09-12T15:11:20.773Z,36.29
2023-09-12T15:13:48.909Z,36.02
2023-09-12T15:24:28.324Z,36.14
2023-09-12T15:26:56.136Z,36.36
2023-09-12T15:29:23.878Z,36.48
2023-09-12T15:31:51.820Z,36.89
2023-09-12T15:34:19.598Z,37.04
2023-09-12T15:36:48.577Z,37.22
2023-09-12T15:39:16.502Z,37.32
2023-09-12T15:41:44.242Z,37.94
2023-09-12T15:44:15.987Z,37.80
2023-09-12T15:46:44.515Z,37.96
2023-09-12T15:49:12.404Z,38.23
2023-09-12T15:51:40.264Z,38.65
2023-09-12T15:54:08.046Z,38.59
2023-09-12T15:56:36.357Z,39.50
2023-09-12T15:59:04.376Z,39.37
2023-09-12T16:01:32.318Z,39.70
2023-09-12T16:04:00.211Z,40.41
2023-09-12T16:06:29.399Z,41.35
2023-09-12T16:08:57.085Z,41.53
2023-09-12T16:11:25.085Z,41.93
2023-09-12T16:13:52.763Z,42.03
2023-09-12T16:16:21.893Z,42.48
2023-09-12T16:18:49.882Z,42.85
2023-09-12T16:21:17.773Z,43.41
2023-09-12T16:23:45.577Z,44.24
2023-09-12T16:26:13.274Z,44.62
2023-09-12T16:28:41.028Z,45.54
2023-09-12T16:31:08.760Z,46.48
2023-09-12T16:33:36.762Z,46.56
2023-09-12T16:36:04.823Z,46.43
2023-09-12T16:38:34.316Z,47.38
2023-09-12T16:41:02.393Z,48.48
2023-09-12T16:43:30.212Z,49.08
2023-09-12T16:45:58.292Z,49.25
2023-09-12T16:48:26.150Z,50.30
2023-09-12T16:50:53.885Z,51.05
2023-09-12T16:53:21.747Z,51.51
2023-09-12T16:55:49.662Z,51.91
2023-09-12T16:58:17.446Z,52.50
2023-09-12T17:00:45.316Z,52.71
2023-09-12T17:03:13.124Z,53.13
2023-09-12T17:05:40.941Z,53.76
2023-09-12T17:08:08.725Z,53.73
2023-09-12T17:10:36.621Z,55.03
2023-09-12T17:13:04.632Z,56.41
2023-09-12T17:15:34.899Z,55.98
2023-09-12T17:18:02.916Z,56.57
2023-09-12T17:20:30.659Z,57.57
2023-09-12T17:22:58.372Z,57.70
2023-09-12T17:25:26.076Z,58.02
2023-09-12T17:27:53.873Z,58.43
2023-09-12T17:30:23.531Z,58.47
2023-09-12T17:32:52.620Z,59.31
2023-09-12T17:35:22.017Z,59.98
2023-09-12T17:37:49.795Z,60.28
2023-09-12T17:40:17.517Z,60.50
2023-09-12T17:42:45.419Z,61.12
2023-09-12T17:45:13.342Z,61.59
2023-09-12T17:47:41.169Z,61.59
2023-09-12T17:50:10.152Z,61.04
2023-09-12T17:52:38.941Z,62.25
2023-09-12T17:55:09.089Z,62.81
2023-09-12T17:57:37.187Z,62.43
2023-09-12T18:00:06.088Z,63.23
2023-09-12T18:02:40.417Z,63.66
2023-09-12T18:05:10.219Z,63.45
2023-09-12T18:07:37.962Z,63.88
2023-09-12T18:10:06.846Z,64.13
2023-09-12T18:12:35.075Z,64.83
2023-09-12T18:15:02.973Z,64.46
2023-09-12T18:17:30.698Z,65.16
2023-09-12T18:19:58.459Z,65.38
2023-09-12T18:22:26.130Z,65.02
2023-09-12T18:24:53.868Z,64.90
2023-09-12T18:27:21.543Z,64.91
2023-09-12T18:29:49.390Z,65.92
2023-09-12T18:32:18.121Z,65.17
2023-09-12T18:34:45.924Z,66.21
2023-09-12T18:37:14.732Z,65.44
2023-09-12T18:39:43.106Z,66.15
2023-09-12T18:42:12.068Z,66.86
2023-09-12T18:44:39.860Z,67.53
2023-09-12T18:47:07.798Z,68.03
2023-09-12T18:49:35.531Z,68.40
2023-09-12T18:52:03.310Z,67.85
2023-09-12T18:54:32.720Z,69.05
2023-09-12T18:57:05.401Z,68.71
2023-09-12T18:59:33.120Z,69.60
2023-09-12T19:02:00.886Z,69.66
2023-09-12T19:04:34.782Z,69.21
2023-09-12T19:07:02.751Z,69.52
2023-09-12T19:09:30.611Z,69.99
2023-09-12T19:11:58.754Z,70.28
2023-09-12T19:14:27.016Z,70.34
2023-09-12T19:16:56.207Z,71.06
2023-09-12T19:19:24.152Z,71.36
2023-09-12T19:21:57.667Z,71.34
2023-09-12T19:24:25.886Z,72.58
2023-09-12T19:26:53.742Z,72.34
2023-09-12T19:29:21.481Z,72.46
2023-09-12T19:31:49.295Z,73.11
2023-09-12T19:34:17.903Z,73.94
2023-09-12T19:36:45.619Z,73.87
2023-09-12T19:39:14.335Z,74.07
2023-09-12T19:41:42.119Z,74.27
2023-09-12T19:44:09.808Z,73.73
2023-09-12T19:46:41.106Z,75.32
2023-09-12T19:49:09.333Z,74.71
2023-09-12T19:51:37.333Z,75.32
2023-09-12T19:54:05.162Z,75.02
2023-09-12T19:56:32.861Z,75.59
2023-09-12T19:59:00.552Z,75.39
2023-09-12T20:01:28.441Z,75.70
2023-09-12T20:03:56.802Z,76.13
2023-09-12T20:06:24.659Z,76.00
2023-09-12T20:08:52.494Z,76.72
2023-09-12T20:11:21.110Z,76.54
2023-09-12T20:13:48.805Z,77.29
2023-09-12T20:16:18.000Z,76.64
2023-09-12T20:18:46.056Z,76.99
2023-09-12T20:21:14.085Z,78.42
2023-09-12T20:23:42.081Z,77.13
2023-09-12T20:26:10.594Z,77.33
2023-09-12T20:28:38.284Z,77.90
2023-09-12T20:31:06.657Z,77.63
2023-09-12T20:33:34.819Z,78.13
2023-09-12T20:36:02.733Z,78.16
2023-09-12T20:38:30.469Z,77.95
2023-09-12T20:40:58.175Z,77.72
2023-09-12T20:43:26.756Z,78.01
2023-09-12T20:45:55.288Z,78.04
2023-09-12T20:48:23.354Z,77.88
2023-09-12T20:50:51.070Z,78.73
2023-09-12T20:53:19.200Z,78.93
2023-09-12T20:55:46.872Z,79.95
2023-09-12T20:58:14.727Z,79.51
2023-09-12T21:00:44.565Z,79.77
2023-09-12T21:03:13.081Z,82.13
2023-09-12T21:05:44.503Z,80.61
2023-09-12T21:08:12.274Z,80.28
2023-09-12T21:10:40.254Z,80.08
2023-09-12T21:13:08.040Z,80.24
2023-09-12T21:15:35.811Z,80.20
2023-09-12T21:18:03.808Z,80.07
2023-09-12T21:20:31.547Z,80.63
2023-09-12T21:23:00.558Z,80.72
2023-09-12T21:25:28.442Z,80.46
2023-09-12T21:27:56.248Z,81.65
2023-09-12T21:30:24.024Z,80.71
2023-09-12T21:32:53.387Z,80.30
2023-09-12T21:35:21.087Z,80.70
2023-09-12T21:37:48.834Z,80.74
2023-09-12T21:40:17.322Z,81.37
2023-09-12T21:42:45.379Z,81.62
2023-09-12T21:45:15.681Z,81.33
2023-09-12T21:47:44.684Z,82.00
2023-09-12T21:50:12.667Z,81.58
2023-09-12T21:52:41.522Z,80.92
2023-09-12T21:55:09.927Z,81.70
2023-09-12T21:57:38.061Z,81.49
2023-09-12T22:00:26.780Z,81.96
2023-09-12T22:02:59.322Z,82.42
2023-09-12T22:05:27.404Z,82.20
2023-09-12T22:07:55.102Z,81.91
2023-09-12T22:10:23.001Z,81.79
2023-09-12T22:12:50.796Z,82.45
2023-09-12T22:15:19.665Z,82.24
2023-09-12T22:17:47.927Z,82.45
2023-09-12T22:20:18.847Z,82.55
2023-09-12T22:22:47.280Z,82.15
2023-09-12T22:25:16.320Z,82.63
2023-09-12T22:27:44.698Z,84.36
2023-09-12T22:30:12.775Z,83.94
2023-09-12T22:32:40.706Z,82.89
2023-09-12T22:35:08.840Z,83.28
2023-09-12T22:37:36.574Z,83.59
2023-09-12T22:40:06.720Z,83.58
2023-09-12T22:42:34.552Z,83.89
2023-09-12T22:45:03.023Z,83.55
2023-09-12T22:47:30.933Z,83.38
2023-09-12T22:50:02.091Z,83.50
2023-09-12T22:52:29.753Z,83.63
2023-09-12T22:54:57.469Z,83.52
2023-09-12T22:57:25.170Z,83.48
2023-09-12T22:59:52.888Z,83.48
2023-09-12T23:02:20.560Z,83.67
2023-09-12T23:04:48.529Z,83.65
2023-09-12T23:07:16.652Z,83.82
2023-09-12T23:09:44.465Z,83.74
2023-09-12T23:12:12.273Z,83.88
2023-09-12T23:14:40.067Z,84.06
2023-09-12T23:17:07.838Z,83.82
2023-09-12T23:19:35.599Z,83.87
2023-09-12T23:22:03.463Z,83.90
2023-09-12T23:24:31.839Z,84.17
2023-09-12T23:26:59.612Z,84.15
2023-09-12T23:29:27.263Z,83.98
2023-09-12T23:31:54.966Z,84.20
2023-09-12T23:34:22.840Z,84.09
2023-09-12T23:36:50.922Z,84.36
2023-09-12T23:39:18.611Z,84.33
2023-09-12T23:41:46.290Z,84.44
2023-09-12T23:44:14.223Z,84.65
2023-09-12T23:46:42.121Z,84.41
2023-09-12T23:49:09.859Z,84.65
2023-09-12T23:51:38.990Z,84.75
2023-09-12T23:54:09.046Z,84.95
2023-09-12T23:56:37.198Z,84.94
2023-09-12T23:59:04.985Z,84.79
